Time;durP1;ratioP1;P1;durP2;ratioP2;P2;SDS_P1;SDS_P2;PMS_P1;PMS_P2;Temp;Humidity;BMP_temperature;BMP_pressure;BME280_temperature;BME280_humidity;BME280_pressure;Samples;Min_cycle;Max_cycle;Signal;HPM_P1;HPM_P2
2022/01/20 00:00:03;;;;;;;11.83;5.33;;;4.00;97.30;;;;;;5053979;28;20441;-87
2022/01/20 00:02:34;;;;;;;10.20;5.03;;;4.00;97.30;;;;;;5071408;28;20417;-88
2022/01/20 00:27:09;;;;;;;6.93;3.50;;;4.00;97.30;;;;;;5075096;28;20915;-88
2022/01/20 00:30:01;;;;;;;8.00;4.40;;;4.00;97.30;;;;;;5074554;28;20460;-89
2022/01/20 00:32:25;;;;;;;9.87;4.30;;;4.00;97.30;;;;;;5074414;28;20436;-89
2022/01/20 00:37:27;;;;;;;6.37;3.93;;;3.90;97.30;;;;;;5074806;28;20438;-89
2022/01/20 00:39:54;;;;;;;11.80;4.20;;;3.90;97.30;;;;;;5056549;28;20464;-89
2022/01/20 00:42:20;;;;;;;9.03;4.50;;;3.90;97.30;;;;;;5074637;28;20496;-88
2022/01/20 00:44:46;;;;;;;6.90;4.20;;;3.80;97.30;;;;;;5056397;28;20496;-89
2022/01/20 00:47:13;;;;;;;5.33;3.60;;;3.80;97.30;;;;;;5055825;28;20175;-89
2022/01/20 00:49:39;;;;;;;7.57;4.53;;;3.80;97.30;;;;;;5063168;28;20994;-89
2022/01/20 00:52:05;;;;;;;7.97;2.73;;;3.70;97.30;;;;;;5056472;28;20413;-88
2022/01/20 00:54:31;;;;;;;15.33;4.10;;;3.70;97.30;;;;;;5056349;28;20932;-89
2022/01/20 00:56:57;;;;;;;6.53;3.67;;;3.70;97.30;;;;;;5056420;28;20417;-89
2022/01/20 00:59:22;;;;;;;9.03;4.50;;;3.70;97.30;;;;;;5056326;28;20804;-88
2022/01/20 01:01:49;;;;;;;22.83;5.60;;;3.60;97.30;;;;;;5056120;28;20214;-89
2022/01/20 01:04:14;;;;;;;7.63;4.40;;;3.70;97.30;;;;;;5056287;28;20179;-89
2022/01/20 01:07:14;;;;;;;8.13;3.70;;;3.70;97.30;;;;;;5074004;28;20787;-88
2022/01/20 01:09:41;;;;;;;11.23;4.07;;;3.70;97.30;;;;;;5055654;28;20445;-88
2022/01/20 01:12:11;;;;;;;8.83;3.40;;;3.70;97.30;;;;;;5072629;28;20441;-89
2022/01/20 01:14:41;;;;;;;5.63;3.33;;;3.70;97.30;;;;;;5054361;28;20932;-88
2022/01/20 01:24:46;;;;;;;6.47;3.57;;;3.70;97.30;;;;;;5073920;28;20402;-88
2022/01/20 01:27:13;;;;;;;6.83;2.67;;;3.70;97.30;;;;;;5055407;28;20221;-88
2022/01/20 01:32:11;;;;;;;7.03;2.33;;;3.60;97.30;;;;;;5073559;28;20418;-88
2022/01/20 01:34:40;;;;;;;17.03;4.73;;;3.60;97.30;;;;;;5073639;28;20427;-88
2022/01/20 01:37:14;;;;;;;12.20;2.70;;;3.60;97.30;;;;;;5055510;28;20413;-88
2022/01/20 01:39:39;;;;;;;9.27;2.73;;;3.60;97.30;;;;;;5055354;28;20563;-88
2022/01/20 01:42:07;;;;;;;18.53;3.90;;;3.60;97.30;;;;;;5055228;28;20871;-88
2022/01/20 01:44:33;;;;;;;14.63;2.27;;;3.50;97.30;;;;;;5055478;28;20182;-88
2022/01/20 01:46:59;;;;;;;6.53;2.13;;;3.50;97.30;;;;;;5055489;28;20405;-88
2022/01/20 01:49:24;;;;;;;9.10;2.40;;;3.50;97.30;;;;;;5055443;28;20191;-89
2022/01/20 01:51:50;;;;;;;13.90;2.30;;;3.50;97.30;;;;;;5073053;28;20464;-88
2022/01/20 01:54:17;;;;;;;10.33;2.50;;;3.60;97.30;;;;;;5072748;28;20633;-88
2022/01/20 01:56:43;;;;;;;10.90;2.63;;;3.60;97.30;;;;;;5055190;28;20425;-89
2022/01/20 01:59:09;;;;;;;21.53;2.40;;;3.60;97.30;;;;;;5072974;28;20962;-89
2022/01/20 02:01:37;;;;;;;17.20;2.47;;;3.60;97.30;;;;;;5072900;28;20423;-88
2022/01/20 02:04:37;;;;;;;11.40;1.93;;;3.60;97.30;;;;;;5055187;28;20410;-86
2022/01/20 02:20:23;;;;;;;11.90;2.53;;;3.50;97.30;;;;;;5072765;28;20429;-88
2022/01/20 02:22:51;;;;;;;10.30;3.00;;;3.50;97.30;;;;;;5057038;28;20418;-88
2022/01/20 02:25:25;;;;;;;14.63;1.87;;;3.50;97.30;;;;;;5058086;28;20417;-88
2022/01/20 02:27:51;;;;;;;8.17;2.07;;;3.40;97.30;;;;;;5054399;28;20475;-88
2022/01/20 02:30:19;;;;;;;9.70;2.33;;;3.40;97.30;;;;;;5054535;28;20501;-88
2022/01/20 02:32:53;;;;;;;11.40;3.67;;;3.30;97.30;;;;;;5055411;28;20406;-88
2022/01/20 02:35:20;;;;;;;18.63;2.80;;;3.30;97.30;;;;;;5054279;28;20983;-88
2022/01/20 02:37:47;;;;;;;16.73;3.00;;;3.20;97.30;;;;;;5069845;28;20405;-88
2022/01/20 02:44:49;;;;;;;5.57;1.53;;;3.10;97.30;;;;;;5051638;28;20469;-88
2022/01/20 02:45:46;;;;;;;8.23;1.80;;;3.10;97.30;;;;;;5070252;28;20481;-88
2022/01/20 02:48:12;;;;;;;7.03;2.60;;;3.10;97.30;;;;;;5059388;28;20580;-87
2022/01/20 02:50:38;;;;;;;15.20;4.63;;;3.10;97.30;;;;;;5052091;28;20213;-88
2022/01/20 02:53:03;;;;;;;7.77;1.77;;;3.00;97.30;;;;;;5051816;28;20421;-88
2022/01/20 02:55:29;;;;;;;7.73;2.63;;;3.00;97.30;;;;;;5052115;28;20559;-86
2022/01/20 02:57:54;;;;;;;12.10;2.03;;;3.00;97.30;;;;;;5051630;28;20567;-88
2022/01/20 03:00:20;;;;;;;6.17;2.17;;;3.00;97.30;;;;;;5051973;28;20712;-88
2022/01/20 03:02:47;;;;;;;8.33;2.43;;;3.00;97.30;;;;;;5051960;28;20240;-88
2022/01/20 03:05:13;;;;;;;10.80;2.03;;;3.00;97.30;;;;;;5059025;28;20182;-88
2022/01/20 03:07:39;;;;;;;14.67;1.73;;;3.00;97.30;;;;;;5051768;28;20990;-88
2022/01/20 03:10:06;;;;;;;6.80;2.10;;;3.00;97.30;;;;;;5069441;28;20233;-88
2022/01/20 03:12:33;;;;;;;8.20;1.90;;;3.00;97.30;;;;;;5051636;28;20190;-88
2022/01/20 03:14:58;;;;;;;10.43;2.10;;;3.00;97.30;;;;;;5051199;28;20611;-87
2022/01/20 03:17:24;;;;;;;4.67;2.00;;;3.00;97.30;;;;;;5051392;28;20422;-88
2022/01/20 03:19:49;;;;;;;7.13;2.23;;;3.00;97.30;;;;;;5051419;28;20244;-88
2022/01/20 03:22:15;;;;;;;10.70;2.37;;;3.00;97.30;;;;;;5051343;28;20179;-88
2022/01/20 03:24:40;;;;;;;9.87;1.90;;;2.90;97.30;;;;;;5069634;28;20645;-87
2022/01/20 03:27:06;;;;;;;8.93;2.10;;;2.90;97.30;;;;;;5051236;28;20222;-88
2022/01/20 03:29:32;;;;;;;12.43;2.07;;;2.90;97.30;;;;;;5069427;28;20219;-88
2022/01/20 03:31:57;;;;;;;9.70;2.40;;;2.90;97.30;;;;;;5051392;28;20304;-89
2022/01/20 03:34:23;;;;;;;7.13;1.50;;;2.90;97.30;;;;;;5069326;28;20171;-88
2022/01/20 03:36:49;;;;;;;11.73;1.77;;;2.90;97.30;;;;;;5051211;28;20668;-87
2022/01/20 03:39:15;;;;;;;8.80;1.50;;;2.90;97.30;;;;;;5051657;28;20223;-87
2022/01/20 03:41:40;;;;;;;8.30;1.90;;;3.00;97.30;;;;;;5054799;28;20405;-88
2022/01/20 03:44:06;;;;;;;15.23;1.90;;;3.00;97.30;;;;;;5055046;28;20931;-88
2022/01/20 03:46:33;;;;;;;3.17;1.67;;;3.00;97.30;;;;;;5055197;28;20647;-88
2022/01/20 03:49:52;;;;;;;12.50;1.87;;;3.00;97.30;;;;;;5054977;28;20719;-87
2022/01/20 03:51:47;;;;;;;13.53;2.20;;;2.90;97.30;;;;;;5064300;28;20929;-88
2022/01/20 03:54:13;;;;;;;11.30;1.77;;;2.90;97.30;;;;;;5054847;28;20508;-87
2022/01/20 03:56:38;;;;;;;9.03;2.00;;;2.90;97.30;;;;;;5054708;28;20178;-88
2022/01/20 03:59:04;;;;;;;8.30;2.50;;;2.90;97.30;;;;;;5072563;28;20230;-88
2022/01/20 04:01:29;;;;;;;12.67;2.13;;;3.00;97.30;;;;;;5055006;28;20172;-86
2022/01/20 04:03:55;;;;;;;16.30;1.80;;;3.00;97.30;;;;;;5054848;28;20652;-87
2022/01/20 04:06:22;;;;;;;4.03;1.73;;;3.00;97.30;;;;;;5055094;28;20550;-88
2022/01/20 04:08:48;;;;;;;4.73;1.70;;;3.00;97.30;;;;;;5072491;28;20605;-88
2022/01/20 04:11:16;;;;;;;12.20;2.10;;;3.00;97.30;;;;;;5054723;28;20488;-88
2022/01/20 04:13:42;;;;;;;9.73;2.53;;;3.00;97.30;;;;;;5054442;28;20413;-87
2022/01/20 04:16:13;;;;;;;7.83;2.10;;;3.00;97.30;;;;;;5055855;28;20808;-88
2022/01/20 04:18:53;;;;;;;7.77;1.77;;;3.00;97.30;;;;;;5054811;28;20689;-87
2022/01/20 04:21:24;;;;;;;18.33;2.30;;;3.00;97.30;;;;;;5072281;28;20496;-88
2022/01/20 04:23:50;;;;;;;13.07;2.23;;;3.00;97.30;;;;;;5054373;28;20923;-88
2022/01/20 04:26:16;;;;;;;20.50;2.60;;;3.10;97.30;;;;;;5054411;28;20409;-88
2022/01/20 04:28:41;;;;;;;12.47;2.70;;;3.10;97.30;;;;;;5053782;28;20978;-88
2022/01/20 04:31:07;;;;;;;6.63;2.03;;;3.10;97.30;;;;;;5054230;28;20205;-88
2022/01/20 04:33:32;;;;;;;8.40;2.10;;;3.10;97.30;;;;;;5053977;28;20252;-88
2022/01/20 04:35:59;;;;;;;9.53;2.97;;;3.10;97.30;;;;;;5073536;28;20174;-87
2022/01/20 04:38:25;;;;;;;3.33;2.20;;;3.10;97.30;;;;;;5073779;28;20201;-88
2022/01/20 04:40:51;;;;;;;11.40;2.77;;;3.20;97.30;;;;;;5074256;28;20797;-88
2022/01/20 04:43:16;;;;;;;16.03;2.90;;;3.20;97.30;;;;;;5074281;28;20918;-88
2022/01/20 04:45:52;;;;;;;15.73;3.00;;;3.20;97.30;;;;;;5075609;28;20210;-88
2022/01/20 04:48:29;;;;;;;7.97;2.23;;;3.20;97.30;;;;;;5077128;28;20189;-88
2022/01/20 04:59:06;;;;;;;6.20;2.33;;;3.20;97.30;;;;;;5071606;28;20429;-87
2022/01/20 05:01:32;;;;;;;11.90;3.00;;;3.30;97.30;;;;;;5053589;28;20417;-88
2022/01/20 05:03:58;;;;;;;14.57;2.70;;;3.30;97.30;;;;;;5053356;28;20232;-88
2022/01/20 05:06:23;;;;;;;11.57;2.43;;;3.30;97.30;;;;;;5053740;28;20615;-88
2022/01/20 05:08:52;;;;;;;19.53;2.70;;;3.30;97.30;;;;;;5071760;28;20274;-87
2022/01/20 05:11:17;;;;;;;8.23;3.07;;;3.30;97.30;;;;;;5053250;28;20218;-88
2022/01/20 05:13:43;;;;;;;19.73;2.93;;;3.30;97.30;;;;;;5053421;28;20471;-87
2022/01/20 05:16:09;;;;;;;23.43;3.73;;;3.40;97.30;;;;;;5071442;28;20174;-87
2022/01/20 05:18:35;;;;;;;16.57;2.37;;;3.40;97.30;;;;;;5071283;28;20188;-87
2022/01/20 05:21:01;;;;;;;13.53;3.07;;;3.50;97.30;;;;;;5053480;28;20724;-85
2022/01/20 05:23:26;;;;;;;12.07;2.80;;;3.50;97.30;;;;;;5053300;28;20512;-87
2022/01/20 05:25:52;;;;;;;7.13;2.00;;;3.50;97.30;;;;;;5071594;28;20556;-86
2022/01/20 05:28:17;;;;;;;6.13;2.13;;;3.50;97.30;;;;;;5054010;28;20210;-87
2022/01/20 05:30:43;;;;;;;8.20;2.70;;;3.50;97.30;;;;;;5072008;28;20214;-87
2022/01/20 05:33:09;;;;;;;24.13;2.50;;;3.40;97.30;;;;;;5065387;28;20198;-87
2022/01/20 05:35:35;;;;;;;11.13;2.40;;;3.40;97.30;;;;;;5088854;28;20175;-87
2022/01/20 05:38:01;;;;;;;19.63;3.37;;;3.40;97.30;;;;;;5090892;28;20405;-87
2022/01/20 05:40:27;;;;;;;11.47;4.03;;;3.50;97.30;;;;;;5072753;28;20468;-86
2022/01/20 05:42:53;;;;;;;9.83;2.50;;;3.50;97.30;;;;;;5072850;28;20183;-87
2022/01/20 05:45:19;;;;;;;10.80;2.60;;;3.50;97.30;;;;;;5073302;28;20465;-87
2022/01/20 05:47:48;;;;;;;6.60;2.30;;;3.50;97.30;;;;;;5091113;28;20198;-88
2022/01/20 05:50:20;;;;;;;8.67;2.13;;;3.40;97.30;;;;;;5072693;28;20468;-88
2022/01/20 05:52:46;;;;;;;38.77;4.53;;;3.40;97.30;;;;;;5072638;28;20474;-87
2022/01/20 05:55:14;;;;;;;9.03;2.70;;;3.40;97.30;;;;;;5072683;28;20791;-87
2022/01/20 05:57:40;;;;;;;8.33;2.23;;;3.30;97.30;;;;;;5072554;28;20474;-87
2022/01/20 06:00:10;;;;;;;19.53;3.00;;;3.20;97.30;;;;;;5072375;28;20481;-87
2022/01/20 06:03:36;;;;;;;24.00;2.77;;;3.20;97.30;;;;;;5090422;28;20842;-86
2022/01/20 06:05:23;;;;;;;6.00;3.07;;;3.20;97.30;;;;;;5090371;28;20428;-87
2022/01/20 06:07:49;;;;;;;11.83;2.30;;;3.10;97.30;;;;;;5072226;28;20421;-87
2022/01/20 06:10:14;;;;;;;13.57;2.03;;;3.10;97.30;;;;;;5072095;28;20766;-87
2022/01/20 06:12:40;;;;;;;5.33;1.93;;;3.10;97.30;;;;;;5072320;28;20175;-87
2022/01/20 06:15:06;;;;;;;6.67;2.30;;;3.10;97.30;;;;;;5073690;28;20232;-87
2022/01/20 06:17:35;;;;;;;5.20;2.07;;;3.00;97.30;;;;;;5072102;28;20508;-87
2022/01/20 06:20:01;;;;;;;8.90;2.00;;;3.00;97.30;;;;;;5072234;28;20436;-87
2022/01/20 06:22:26;;;;;;;4.10;1.90;;;3.00;97.30;;;;;;5072107;28;20536;-87
2022/01/20 06:24:52;;;;;;;7.90;2.00;;;2.90;97.30;;;;;;5092007;28;20190;-87
2022/01/20 06:27:17;;;;;;;3.30;1.90;;;2.90;97.30;;;;;;5092159;28;20187;-86
2022/01/20 06:29:43;;;;;;;5.33;1.63;;;2.80;97.30;;;;;;5074213;28;20198;-87
2022/01/20 06:32:09;;;;;;;9.37;2.20;;;2.80;97.30;;;;;;5092631;28;20193;-87
2022/01/20 06:34:34;;;;;;;3.93;1.90;;;2.80;97.30;;;;;;5066520;28;20171;-87
2022/01/20 06:37:00;;;;;;;7.40;1.70;;;2.70;97.30;;;;;;5058881;28;20217;-86
2022/01/20 06:39:25;;;;;;;16.60;1.90;;;2.40;97.30;;;;;;5073610;28;20225;-87
2022/01/20 06:41:52;;;;;;;9.60;1.50;;;2.10;97.30;;;;;;5054730;28;20609;-86
2022/01/20 06:44:18;;;;;;;14.67;3.90;;;2.00;97.30;;;;;;5054369;28;20213;-87
2022/01/20 06:46:44;;;;;;;3.43;1.70;;;1.90;97.30;;;;;;5054354;28;20965;-87
2022/01/20 06:49:10;;;;;;;1.43;1.30;;;1.80;97.30;;;;;;5059883;28;20513;-86
2022/01/20 06:51:36;;;;;;;13.10;1.93;;;1.80;97.30;;;;;;5054301;28;20583;-87
2022/01/20 06:54:01;;;;;;;11.87;1.60;;;1.70;97.30;;;;;;5054583;28;20476;-87
2022/01/20 06:56:27;;;;;;;3.63;1.77;;;1.70;97.30;;;;;;5072981;28;20421;-86
2022/01/20 06:58:52;;;;;;;10.77;2.17;;;1.70;97.30;;;;;;5054342;28;20232;-86
2022/01/20 07:01:18;;;;;;;9.70;2.10;;;1.70;97.30;;;;;;5054690;28;20671;-86
2022/01/20 07:03:44;;;;;;;21.47;2.37;;;1.70;97.30;;;;;;5054522;28;20649;-87
2022/01/20 07:06:09;;;;;;;20.03;2.10;;;1.70;97.30;;;;;;5054352;28;20270;-87
2022/01/20 07:08:35;;;;;;;4.97;1.77;;;1.70;97.30;;;;;;5054091;28;20191;-86
2022/01/20 07:11:00;;;;;;;6.03;2.00;;;1.70;97.30;;;;;;5054251;28;20230;-87
2022/01/20 07:13:26;;;;;;;11.50;1.90;;;1.70;97.30;;;;;;5054468;28;20181;-86
2022/01/20 07:15:51;;;;;;;5.80;2.00;;;1.70;97.30;;;;;;5057966;28;20175;-86
2022/01/20 07:18:16;;;;;;;11.23;2.83;;;1.70;97.30;;;;;;5063831;28;20171;-87
2022/01/20 07:20:42;;;;;;;6.73;2.73;;;1.70;97.30;;;;;;5076086;28;20175;-86
2022/01/20 07:23:08;;;;;;;9.97;2.37;;;1.70;97.30;;;;;;5076158;28;20807;-85
2022/01/20 07:25:33;;;;;;;4.40;1.77;;;1.80;97.30;;;;;;5058122;28;20210;-87
2022/01/20 07:27:59;;;;;;;11.23;1.70;;;1.80;97.30;;;;;;5058226;28;20175;-86
2022/01/20 07:30:24;;;;;;;4.87;1.93;;;1.80;97.30;;;;;;5075280;28;20720;-86
2022/01/20 07:32:50;;;;;;;12.53;2.00;;;1.80;97.30;;;;;;5057762;28;20170;-86
2022/01/20 07:35:15;;;;;;;7.03;2.07;;;1.80;97.30;;;;;;5057831;28;20168;-86
2022/01/20 07:37:41;;;;;;;12.53;1.90;;;1.80;97.30;;;;;;5058368;28;20179;-86
2022/01/20 07:40:07;;;;;;;6.57;1.67;;;1.90;97.30;;;;;;5060070;28;20230;-87
2022/01/20 07:42:33;;;;;;;5.67;1.40;;;1.80;97.30;;;;;;5058157;28;20236;-87
2022/01/20 07:44:58;;;;;;;12.30;2.07;;;1.80;97.30;;;;;;5057890;28;20828;-87
2022/01/20 07:47:24;;;;;;;5.13;1.77;;;1.80;97.30;;;;;;5057749;28;20217;-87
2022/01/20 07:49:49;;;;;;;6.20;1.67;;;1.80;97.30;;;;;;5057600;28;20240;-87
2022/01/20 07:52:14;;;;;;;3.30;1.97;;;1.80;97.30;;;;;;5075203;28;20163;-87
2022/01/20 07:54:40;;;;;;;5.83;1.70;;;1.80;97.30;;;;;;5057677;28;20179;-86
2022/01/20 07:57:07;;;;;;;9.23;3.70;;;1.70;97.30;;;;;;5058681;28;20181;-87
2022/01/20 07:59:33;;;;;;;9.20;1.57;;;1.80;97.30;;;;;;5075668;28;20562;-86
2022/01/20 08:01:59;;;;;;;11.37;1.80;;;1.70;97.30;;;;;;5057526;28;20414;-87
2022/01/20 08:04:25;;;;;;;8.50;2.13;;;1.70;97.30;;;;;;5057491;28;21436;-86
2022/01/20 08:06:50;;;;;;;7.90;1.50;;;1.60;97.30;;;;;;5057648;28;20176;-87
2022/01/20 08:09:16;;;;;;;4.70;2.10;;;1.60;97.30;;;;;;5057382;28;20191;-87
2022/01/20 08:11:41;;;;;;;5.07;1.50;;;1.60;97.30;;;;;;5057092;28;20223;-87
2022/01/20 08:14:07;;;;;;;6.57;1.60;;;1.50;97.30;;;;;;5057229;28;20639;-87
2022/01/20 08:16:33;;;;;;;8.40;1.70;;;1.50;97.30;;;;;;5056874;28;20251;-86
2022/01/20 08:18:58;;;;;;;4.60;1.70;;;1.60;97.30;;;;;;5075154;28;20191;-86
2022/01/20 08:21:24;;;;;;;10.10;1.73;;;1.60;97.30;;;;;;5057338;28;20179;-87
2022/01/20 08:23:49;;;;;;;7.63;2.73;;;1.60;97.30;;;;;;5057215;28;20185;-87
2022/01/20 08:26:14;;;;;;;6.67;1.63;;;1.70;97.30;;;;;;5056371;28;20179;-87
2022/01/20 08:28:40;;;;;;;3.50;1.80;;;1.80;97.30;;;;;;5056747;28;20217;-87
2022/01/20 08:31:06;;;;;;;11.07;1.73;;;1.80;97.30;;;;;;5074546;28;20700;-84
2022/01/20 08:33:31;;;;;;;8.53;2.00;;;1.90;97.30;;;;;;5056800;28;20648;-84
2022/01/20 08:35:57;;;;;;;2.77;1.27;;;1.90;97.30;;;;;;5056897;28;20810;-84
2022/01/20 08:38:22;;;;;;;7.60;1.43;;;1.90;97.30;;;;;;5056387;28;20175;-84
2022/01/20 08:40:48;;;;;;;11.57;2.13;;;1.90;97.30;;;;;;5056407;28;20174;-85
2022/01/20 08:43:14;;;;;;;8.50;2.10;;;2.00;97.30;;;;;;5056879;28;20193;-84
2022/01/20 08:45:43;;;;;;;9.73;2.43;;;2.00;97.30;;;;;;5056622;28;20205;-84
2022/01/20 08:48:11;;;;;;;2.47;1.60;;;2.00;97.30;;;;;;5057419;28;20615;-84
2022/01/20 08:50:37;;;;;;;13.43;1.80;;;2.10;97.30;;;;;;5076592;28;20484;-84
2022/01/20 08:53:03;;;;;;;6.83;1.77;;;2.10;97.30;;;;;;5056674;28;20457;-83
2022/01/20 08:55:28;;;;;;;4.17;1.57;;;2.10;97.30;;;;;;5074429;28;20168;-84
2022/01/20 08:57:55;;;;;;;7.07;1.80;;;2.10;97.30;;;;;;5056639;28;20202;-84
2022/01/20 09:00:23;;;;;;;6.63;1.70;;;2.10;97.30;;;;;;5056315;28;20199;-86
2022/01/20 09:02:49;;;;;;;8.90;2.00;;;2.10;97.30;;;;;;5056622;28;20425;-86
2022/01/20 09:05:14;;;;;;;4.30;1.80;;;2.20;97.30;;;;;;5057439;28;20417;-85
2022/01/20 09:07:40;;;;;;;4.73;1.70;;;2.10;97.30;;;;;;5058628;28;20269;-85
2022/01/20 09:10:07;;;;;;;4.70;2.17;;;2.00;97.30;;;;;;5056727;28;20285;-86
2022/01/20 09:17:44;;;;;;;4.03;1.97;;;2.10;97.30;;;;;;5074780;28;20424;-85
2022/01/20 09:20:10;;;;;;;6.90;1.73;;;2.20;97.30;;;;;;5056247;28;20437;-86
2022/01/20 09:22:36;;;;;;;6.80;2.30;;;2.20;97.30;;;;;;5055517;28;20641;-86
2022/01/20 09:25:02;;;;;;;11.33;2.10;;;2.30;97.30;;;;;;5072987;28;20410;-86
2022/01/20 09:27:29;;;;;;;5.83;1.93;;;2.30;97.30;;;;;;5059589;28;20678;-85
2022/01/20 09:29:54;;;;;;;8.87;2.53;;;2.40;97.30;;;;;;5064630;28;20516;-86
2022/01/20 09:32:20;;;;;;;6.80;2.20;;;2.40;97.30;;;;;;5075654;28;20419;-87
2022/01/20 09:34:46;;;;;;;5.80;1.80;;;2.40;97.30;;;;;;5066339;28;20171;-87
2022/01/20 09:37:13;;;;;;;10.53;1.90;;;2.40;97.30;;;;;;5053011;28;20417;-85
2022/01/20 09:39:40;;;;;;;11.97;2.23;;;2.50;97.30;;;;;;5057089;28;20452;-87
2022/01/20 09:42:07;;;;;;;5.63;2.00;;;2.50;97.30;;;;;;5062079;28;20433;-85
2022/01/20 09:44:34;;;;;;;5.67;2.00;;;2.60;97.30;;;;;;5052766;28;20447;-86
2022/01/20 09:47:00;;;;;;;11.20;2.83;;;2.60;97.30;;;;;;5083913;28;20511;-86
2022/01/20 09:49:25;;;;;;;9.03;2.37;;;2.70;97.30;;;;;;5072615;28;20507;-86
2022/01/20 09:51:51;;;;;;;14.30;2.60;;;2.70;97.30;;;;;;5074559;28;20563;-86
2022/01/20 09:54:17;;;;;;;9.60;2.90;;;2.70;97.30;;;;;;5091130;28;20178;-86
2022/01/20 09:56:44;;;;;;;7.17;2.53;;;2.80;97.30;;;;;;5072480;28;20190;-86
2022/01/20 09:59:11;;;;;;;3.30;1.83;;;2.80;97.30;;;;;;5072828;28;20425;-85
2022/01/20 10:01:44;;;;;;;4.10;1.27;;;2.80;97.30;;;;;;5069510;28;20433;-86
2022/01/20 10:04:30;;;;;;;7.30;1.80;;;2.80;97.30;;;;;;5072295;28;20495;-86
2022/01/20 10:07:03;;;;;;;6.30;1.90;;;2.80;97.30;;;;;;5072521;28;20465;-85
2022/01/20 10:09:38;;;;;;;12.23;3.80;;;2.90;97.30;;;;;;5090518;28;20557;-85
2022/01/20 10:12:05;;;;;;;5.50;2.70;;;3.00;97.30;;;;;;5072710;28;20459;-85
2022/01/20 10:14:49;;;;;;;10.03;2.40;;;3.00;97.30;;;;;;5072545;28;20964;-86
2022/01/20 10:17:14;;;;;;;12.13;1.80;;;3.00;97.30;;;;;;5072530;28;20413;-86
2022/01/20 10:19:40;;;;;;;11.60;2.00;;;3.00;97.30;;;;;;5090433;28;20473;-86
2022/01/20 10:22:14;;;;;;;13.63;2.30;;;3.00;97.30;;;;;;5072180;28;20274;-86
2022/01/20 10:24:40;;;;;;;7.57;2.13;;;3.00;97.30;;;;;;5091455;28;20954;-86
2022/01/20 10:27:11;;;;;;;9.77;2.40;;;3.10;97.30;;;;;;5072893;28;20446;-86
2022/01/20 10:29:36;;;;;;;6.47;1.67;;;3.10;97.30;;;;;;5069069;28;20433;-86
2022/01/20 10:32:02;;;;;;;5.63;2.17;;;3.20;97.30;;;;;;5059716;28;20476;-86
2022/01/20 10:34:37;;;;;;;14.43;2.80;;;3.20;97.30;;;;;;5059016;28;20179;-87
2022/01/20 10:37:07;;;;;;;7.70;1.70;;;3.10;97.30;;;;;;5090331;28;20253;-85
2022/01/20 10:39:42;;;;;;;4.97;2.13;;;3.20;97.30;;;;;;5072197;28;20503;-85
2022/01/20 10:42:13;;;;;;;12.30;2.20;;;3.20;97.30;;;;;;5090317;28;20412;-86
2022/01/20 10:44:48;;;;;;;10.40;3.13;;;3.40;97.30;;;;;;5071486;28;20416;-86
2022/01/20 10:47:23;;;;;;;5.70;2.00;;;3.40;96.70;;;;;;5071707;28;20420;-85
2022/01/20 10:49:49;;;;;;;6.87;1.90;;;3.40;96.30;;;;;;5071583;28;20534;-86
2022/01/20 10:52:21;;;;;;;12.37;2.20;;;3.40;96.50;;;;;;5094061;28;20408;-86
2022/01/20 10:54:53;;;;;;;6.73;2.20;;;3.50;97.10;;;;;;5071827;28;20865;-86
2022/01/20 10:57:26;;;;;;;13.00;2.80;;;3.70;97.30;;;;;;5071914;28;20766;-85
2022/01/20 10:59:57;;;;;;;8.23;2.10;;;3.60;96.30;;;;;;5077166;28;20429;-86
2022/01/20 11:02:27;;;;;;;7.13;2.03;;;3.60;96.00;;;;;;5071740;28;20420;-85
2022/01/20 11:04:53;;;;;;;8.90;2.33;;;3.60;97.30;;;;;;5071780;28;20416;-85
2022/01/20 11:07:20;;;;;;;11.93;2.30;;;3.70;96.70;;;;;;5071735;28;20508;-86
2022/01/20 11:09:51;;;;;;;6.03;2.23;;;3.70;95.80;;;;;;5071867;28;20432;-86
2022/01/20 11:12:17;;;;;;;8.67;2.53;;;3.70;95.40;;;;;;5071958;28;20435;-84
2022/01/20 11:14:45;;;;;;;14.67;3.03;;;3.70;95.70;;;;;;5090028;28;20396;-84
2022/01/20 11:17:22;;;;;;;4.60;1.70;;;3.70;95.10;;;;;;5071099;28;20476;-84
2022/01/20 11:19:48;;;;;;;10.10;2.50;;;3.60;95.80;;;;;;5089375;28;20439;-84
2022/01/20 11:22:14;;;;;;;6.13;1.63;;;3.60;96.10;;;;;;5071121;28;20510;-85
2022/01/20 11:24:44;;;;;;;7.30;1.93;;;3.80;96.40;;;;;;5071623;28;20474;-84
2022/01/20 11:27:12;;;;;;;11.37;1.93;;;3.70;96.20;;;;;;5070348;28;20408;-85
2022/01/20 11:29:50;;;;;;;14.30;3.63;;;3.80;96.20;;;;;;5089395;28;20428;-85
2022/01/20 11:32:25;;;;;;;4.57;2.20;;;3.90;95.80;;;;;;5071678;28;20423;-85
2022/01/20 11:35:04;;;;;;;11.27;2.10;;;4.10;95.10;;;;;;5061192;28;20428;-85
2022/01/20 11:37:37;;;;;;;10.23;2.10;;;4.00;94.80;;;;;;5051499;28;20500;-85
2022/01/20 11:40:16;;;;;;;8.80;2.87;;;3.90;94.30;;;;;;5069194;28;20518;-85
2022/01/20 11:42:56;;;;;;;8.53;2.13;;;3.90;95.10;;;;;;5051841;28;20796;-85
2022/01/20 11:45:28;;;;;;;11.63;2.20;;;4.00;95.30;;;;;;5058930;28;20446;-84
2022/01/20 11:47:54;;;;;;;19.60;3.53;;;4.20;95.60;;;;;;5051349;28;21007;-85
2022/01/20 11:50:21;;;;;;;5.60;1.93;;;4.40;93.20;;;;;;5069018;28;20511;-85
2022/01/20 11:52:46;;;;;;;6.93;2.60;;;4.30;93.80;;;;;;5051284;28;20499;-85
2022/01/20 11:55:14;;;;;;;7.10;3.53;;;4.10;94.10;;;;;;5051779;28;20637;-85
2022/01/20 11:57:40;;;;;;;10.03;1.90;;;4.10;95.00;;;;;;5050986;28;20242;-84
2022/01/20 12:00:26;;;;;;;11.80;3.33;;;4.10;94.70;;;;;;5069799;28;20966;-85
2022/01/20 12:02:53;;;;;;;4.83;2.30;;;4.30;93.30;;;;;;5060860;28;20183;-85
2022/01/20 12:05:29;;;;;;;4.73;1.93;;;4.40;92.30;;;;;;5071373;28;20431;-85
2022/01/20 12:08:14;;;;;;;15.77;2.50;;;4.60;93.20;;;;;;5054530;28;20417;-84
2022/01/20 12:10:41;;;;;;;9.40;2.00;;;4.90;92.70;;;;;;5066276;28;20530;-85
2022/01/20 12:13:09;;;;;;;11.77;2.20;;;5.10;91.90;;;;;;5074603;28;20427;-85
2022/01/20 12:15:50;;;;;;;10.40;2.30;;;5.30;90.70;;;;;;5074994;28;21053;-85
2022/01/20 12:18:16;;;;;;;12.37;2.90;;;5.00;90.20;;;;;;5104833;28;20492;-84
2022/01/20 12:20:42;;;;;;;5.83;1.50;;;4.80;91.00;;;;;;5074640;28;20412;-85
2022/01/20 12:23:08;;;;;;;10.20;2.20;;;4.60;91.50;;;;;;5074853;28;20516;-85
2022/01/20 12:25:35;;;;;;;8.17;2.87;;;4.40;92.30;;;;;;5075278;28;20531;-84
2022/01/20 12:28:15;;;;;;;5.70;1.77;;;4.20;91.80;;;;;;5074552;28;20171;-84
2022/01/20 12:30:47;;;;;;;7.90;1.90;;;4.00;91.50;;;;;;5093055;28;20475;-86
2022/01/20 12:33:15;;;;;;;8.83;2.20;;;3.90;92.60;;;;;;5074815;28;20427;-86
2022/01/20 12:35:45;;;;;;;6.73;2.10;;;3.80;93.30;;;;;;5085867;28;20515;-85
2022/01/20 12:38:27;;;;;;;6.83;1.93;;;3.80;93.40;;;;;;5073837;28;20440;-85
2022/01/20 12:41:02;;;;;;;8.73;2.00;;;3.70;94.00;;;;;;5054319;28;20417;-86
2022/01/20 12:43:39;;;;;;;7.40;1.70;;;3.60;94.10;;;;;;5072177;28;20420;-86
2022/01/20 12:46:06;;;;;;;4.73;1.40;;;3.50;94.70;;;;;;5054420;28;20441;-86
2022/01/20 12:48:31;;;;;;;8.30;2.10;;;3.50;95.40;;;;;;5072356;28;20974;-85
2022/01/20 12:51:02;;;;;;;5.30;2.13;;;3.50;95.70;;;;;;5054255;28;20556;-86
2022/01/20 12:53:43;;;;;;;6.90;1.77;;;3.50;96.00;;;;;;5057695;28;20175;-86
2022/01/20 12:56:10;;;;;;;5.83;1.33;;;3.40;96.70;;;;;;5053777;28;20417;-85
2022/01/20 12:58:45;;;;;;;7.93;2.33;;;3.40;96.10;;;;;;5053473;28;21004;-86
2022/01/20 13:01:11;;;;;;;9.07;2.00;;;3.40;95.70;;;;;;5072089;28;20859;-86
2022/01/20 13:03:41;;;;;;;5.17;1.70;;;3.30;96.00;;;;;;5071791;28;20409;-85
2022/01/20 13:06:11;;;;;;;7.87;2.00;;;3.40;95.70;;;;;;5053749;28;20573;-86
2022/01/20 13:08:40;;;;;;;5.30;1.83;;;3.40;95.40;;;;;;5053985;28;20438;-85
2022/01/20 13:11:14;;;;;;;7.83;1.90;;;3.50;95.30;;;;;;5054389;28;20458;-85
2022/01/20 13:13:39;;;;;;;19.13;3.13;;;3.40;94.80;;;;;;5033684;28;20414;-86
2022/01/20 13:16:13;;;;;;;3.53;1.40;;;3.40;94.80;;;;;;5033773;28;20963;-85
2022/01/20 13:18:39;;;;;;;4.13;1.73;;;3.40;95.00;;;;;;5034609;28;20184;-85
2022/01/20 13:21:07;;;;;;;15.60;2.10;;;3.30;95.40;;;;;;5034139;28;20425;-87
2022/01/20 13:23:55;;;;;;;5.00;1.87;;;3.30;96.20;;;;;;5033663;28;20180;-84
2022/01/20 13:26:21;;;;;;;5.93;2.30;;;3.30;96.80;;;;;;5052455;28;20395;-84
2022/01/20 13:29:00;;;;;;;3.97;1.63;;;3.20;96.60;;;;;;5033726;28;20948;-85
2022/01/20 13:31:26;;;;;;;11.27;1.80;;;3.10;96.50;;;;;;5052616;28;20442;-85
2022/01/20 13:33:51;;;;;;;13.13;1.90;;;3.00;96.70;;;;;;5036325;28;21079;-85
2022/01/20 13:36:20;;;;;;;4.00;1.70;;;3.10;97.20;;;;;;5053849;28;20175;-86
2022/01/20 13:38:49;;;;;;;8.60;2.60;;;3.20;97.20;;;;;;5058290;28;20286;-86
2022/01/20 13:41:20;;;;;;;3.60;1.53;;;3.50;96.30;;;;;;5087001;28;20419;-87
2022/01/20 13:46:32;;;;;;;7.40;2.70;;;3.20;96.70;;;;;;5091500;28;20859;-86
2022/01/20 13:49:09;;;;;;;5.03;1.67;;;3.00;97.30;;;;;;5073137;28;20510;-86
2022/01/20 13:51:35;;;;;;;10.10;2.23;;;2.90;97.30;;;;;;5091005;28;20482;-86
2022/01/20 13:54:00;;;;;;;13.77;2.70;;;2.80;97.30;;;;;;5073028;28;20854;-87
2022/01/20 13:56:26;;;;;;;10.10;1.83;;;2.80;97.30;;;;;;5072736;28;20181;-87
2022/01/20 13:59:06;;;;;;;4.03;1.70;;;2.80;97.30;;;;;;5090748;28;20278;-86
2022/01/20 14:01:32;;;;;;;16.83;2.40;;;2.70;97.30;;;;;;5072310;28;20791;-86
2022/01/20 14:03:57;;;;;;;4.63;1.70;;;2.70;97.30;;;;;;5090794;28;20413;-86